Time;durP1;ratioP1;P1;durP2;ratioP2;P2;SDS_P1;SDS_P2;PMS_P1;PMS_P2;Temp;Humidity;BMP_temperature;BMP_pressure;BME280_temperature;BME280_humidity;BME280_pressure;Samples;Min_cycle;Max_cycle;Signal;HPM_P1;HPM_P2
2022/09/29 00:01:46;;;;;;;24.27;14.00;;;;;;;6.11;100.00;99918.75;5049067;28;20048;-66
2022/09/29 00:04:12;;;;;;;19.33;13.10;;;;;;;6.08;100.00;99913.72;5046057;28;20071;-66
2022/09/29 00:06:37;;;;;;;15.25;11.65;;;;;;;6.03;100.00;99922.56;5047436;28;20345;-66
2022/09/29 00:09:03;;;;;;;15.32;11.52;;;;;;;5.99;100.00;99915.94;5046194;28;20091;-67
2022/09/29 00:11:28;;;;;;;17.00;12.15;;;;;;;6.00;100.00;99908.59;5048378;28;20471;-67
2022/09/29 00:13:53;;;;;;;17.83;12.88;;;;;;;5.98;100.00;99908.78;5048094;28;20029;-67
2022/09/29 00:16:19;;;;;;;22.45;13.05;;;;;;;5.99;100.00;99910.47;5049152;28;20519;-67
2022/09/29 00:18:45;;;;;;;22.50;14.25;;;;;;;5.98;100.00;99917.81;5048383;28;20033;-66
2022/09/29 00:21:13;;;;;;;17.77;13.57;;;;;;;5.99;100.00;99921.38;5048562;28;20029;-66
2022/09/29 00:23:39;;;;;;;18.48;13.93;;;;;;;5.99;100.00;99915.94;5047620;28;20025;-66
2022/09/29 00:26:14;;;;;;;17.52;13.00;;;;;;;6.00;100.00;99914.03;5029112;28;20033;-66
2022/09/29 00:28:44;;;;;;;17.17;12.80;;;;;;;6.00;100.00;99905.84;5048035;28;20431;-66
2022/09/29 00:31:11;;;;;;;19.45;14.40;;;;;;;6.00;100.00;99911.31;5030523;28;20480;-66
2022/09/29 00:33:37;;;;;;;17.55;13.80;;;;;;;6.00;100.00;99914.03;5047586;28;20032;-66
2022/09/29 00:36:08;;;;;;;13.13;10.00;;;;;;;5.95;100.00;99914.69;5047769;28;20414;-67
2022/09/29 00:38:34;;;;;;;15.25;11.63;;;;;;;5.95;100.00;99911.97;5048439;28;20361;-66
2022/09/29 00:40:59;;;;;;;13.18;10.60;;;;;;;5.89;100.00;99908.22;5046901;28;20040;-67
2022/09/29 00:43:56;;;;;;;17.15;11.15;;;;;;;5.90;100.00;99903.59;5047975;28;20475;-66
2022/09/29 00:46:34;;;;;;;17.30;12.65;;;;;;;5.82;100.00;99906.59;5048455;28;20044;-66
2022/09/29 00:49:05;;;;;;;18.42;13.90;;;;;;;5.76;100.00;99910.22;5045881;28;20080;-66
2022/09/29 00:51:33;;;;;;;17.10;13.13;;;;;;;5.73;100.00;99911.50;5045072;28;20025;-67
2022/09/29 00:53:59;;;;;;;17.90;13.40;;;;;;;5.73;100.00;99904.16;5048022;28;20096;-66
2022/09/29 00:56:25;;;;;;;17.75;12.98;;;;;;;5.73;100.00;99915.06;5046375;28;20111;-67
2022/09/29 00:58:59;;;;;;;17.33;13.10;;;;;;;5.71;100.00;99909.00;5029582;28;20108;-66
2022/09/29 01:01:27;;;;;;;18.27;13.32;;;;;;;5.68;100.00;99906.72;5045008;28;20033;-67
2022/09/29 01:03:58;;;;;;;17.80;13.30;;;;;;;5.64;100.00;99908.22;5046324;28;20037;-67
2022/09/29 01:06:35;;;;;;;18.40;13.80;;;;;;;5.57;100.00;99899.25;5092505;22;20378;-65
2022/09/29 01:09:04;;;;;;;18.77;13.55;;;;;;;5.62;100.00;99907.59;5041841;28;20075;-64
2022/09/29 01:11:30;;;;;;;20.00;14.57;;;;;;;5.60;100.00;99896.09;5042533;28;20020;-64
2022/09/29 01:14:02;;;;;;;18.45;14.73;;;;;;;5.60;100.00;99897.97;5044262;28;20489;-64
2022/09/29 01:16:28;;;;;;;17.45;14.00;;;;;;;5.55;100.00;99895.94;5032995;28;20033;-64
2022/09/29 01:18:53;;;;;;;17.67;13.20;;;;;;;5.53;100.00;99895.31;5027981;28;20033;-64
2022/09/29 01:21:45;;;;;;;16.40;12.85;;;;;;;5.50;100.00;99898.47;5045866;28;20055;-64
2022/09/29 01:24:48;;;;;;;20.45;14.00;;;;;;;5.47;100.00;99901.63;5047060;28;20036;-64
2022/09/29 01:27:41;;;;;;;18.83;13.15;;;;;;;5.43;100.00;99901.25;5038209;28;20727;-64
2022/09/29 01:30:18;;;;;;;17.38;12.73;;;;;;;5.44;100.00;99899.38;5047282;28;20036;-64
2022/09/29 01:33:03;;;;;;;18.98;13.20;;;;;;;5.46;100.00;99908.13;5047966;28;20479;-63
2022/09/29 01:35:35;;;;;;;17.35;13.48;;;;;;;5.42;100.00;99909.63;5045879;28;20044;-64
2022/09/29 01:38:09;;;;;;;18.38;13.25;;;;;;;5.37;100.00;99904.88;5047195;28;20566;-65
2022/09/29 01:40:49;;;;;;;20.40;13.23;;;;;;;5.39;100.00;99910.09;5035072;28;20041;-65
2022/09/29 01:43:24;;;;;;;15.75;12.82;;;;;;;5.38;100.00;99906.53;5042465;28;20049;-65
2022/09/29 01:45:58;;;;;;;16.75;13.07;;;;;;;5.30;100.00;99914.13;5046610;28;20119;-66
2022/09/29 01:48:28;;;;;;;14.30;12.20;;;;;;;5.26;100.00;99910.16;5046582;28;20136;-65
2022/09/29 01:50:57;;;;;;;14.93;11.88;;;;;;;5.21;100.00;99919.81;5047880;28;20036;-65
2022/09/29 01:53:29;;;;;;;15.18;11.95;;;;;;;5.17;100.00;99915.88;5051371;28;20429;-66
2022/09/29 01:56:00;;;;;;;17.25;12.52;;;;;;;5.14;100.00;99918.19;5050071;28;20095;-66
2022/09/29 01:58:36;;;;;;;17.45;12.50;;;;;;;5.14;100.00;99908.13;5034530;28;20509;-66
2022/09/29 02:01:08;;;;;;;17.00;14.23;;;;;;;5.11;100.00;99914.00;5050466;28;20106;-65
2022/09/29 02:03:40;;;;;;;17.27;13.93;;;;;;;5.11;100.00;99919.44;5051457;28;20036;-65
2022/09/29 02:06:16;;;;;;;17.73;13.07;;;;;;;5.13;100.00;99916.53;5049358;28;20032;-65
2022/09/29 02:08:50;;;;;;;16.10;13.52;;;;;;;5.12;100.00;99912.13;5049925;28;20084;-65
2022/09/29 02:11:16;;;;;;;14.43;12.02;;;;;;;5.08;100.00;99909.00;5051589;28;20387;-65
2022/09/29 02:13:50;;;;;;;18.13;12.32;;;;;;;5.10;100.00;99906.06;5049355;28;20055;-65
2022/09/29 02:16:21;;;;;;;15.18;12.40;;;;;;;5.05;100.00;99909.44;5041332;28;20518;-65
2022/09/29 02:18:50;;;;;;;17.67;11.10;;;;;;;5.03;100.00;99911.56;5051357;28;20049;-65
2022/09/29 02:21:15;;;;;;;14.85;11.75;;;;;;;4.98;100.00;99908.66;5050879;28;20356;-65
2022/09/29 02:23:40;;;;;;;17.50;12.40;;;;;;;4.96;100.00;99916.19;5050191;28;20025;-65
2022/09/29 02:26:06;;;;;;;15.75;12.43;;;;;;;4.94;100.00;99921.84;5048181;28;20028;-65
2022/09/29 02:28:31;;;;;;;17.17;12.90;;;;;;;4.95;100.00;99915.34;5030810;28;20041;-65
2022/09/29 02:30:57;;;;;;;18.15;12.93;;;;;;;4.97;100.00;99920.59;5039593;28;20140;-65
2022/09/29 02:33:24;;;;;;;17.90;13.40;;;;;;;4.98;100.00;99921.44;5050357;28;20028;-66
2022/09/29 02:36:17;;;;;;;20.08;14.98;;;;;;;4.95;100.00;99926.22;5049798;28;20113;-66
2022/09/29 02:39:00;;;;;;;18.95;13.57;;;;;;;4.93;100.00;99922.91;5045364;28;20068;-65
2022/09/29 02:41:46;;;;;;;17.65;14.68;;;;;;;4.90;100.00;99925.22;5030333;28;20049;-65
2022/09/29 02:44:36;;;;;;;15.35;13.60;;;;;;;4.91;100.00;99924.16;5032935;28;20025;-65
2022/09/29 02:47:12;;;;;;;16.58;13.68;;;;;;;4.85;100.00;99916.88;5030479;28;20384;-66
2022/09/29 02:50:03;;;;;;;17.25;13.30;;;;;;;4.84;100.00;99924.19;5030675;28;20102;-65
2022/09/29 02:53:03;;;;;;;17.60;14.57;;;;;;;4.84;100.00;99926.91;5039756;28;20048;-65
2022/09/29 02:55:47;;;;;;;18.95;14.45;;;;;;;4.85;100.00;99925.03;5041595;28;20045;-66
2022/09/29 02:58:19;;;;;;;17.40;14.90;;;;;;;4.80;100.00;99920.22;5048989;28;20379;-66
2022/09/29 03:00:46;;;;;;;20.67;16.25;;;;;;;4.79;100.00;99925.91;5048906;28;20112;-66
2022/09/29 03:03:11;;;;;;;18.90;14.65;;;;;;;4.78;100.00;99919.63;5047349;28;20064;-65
2022/09/29 03:05:37;;;;;;;19.50;15.63;;;;;;;4.75;100.00;99920.03;5049203;28;20097;-65
2022/09/29 03:08:02;;;;;;;18.15;15.45;;;;;;;4.75;100.00;99927.38;5048309;28;20045;-66
2022/09/29 03:10:27;;;;;;;20.35;15.23;;;;;;;4.74;100.00;99928.44;5033301;28;20067;-65
2022/09/29 03:12:53;;;;;;;18.98;14.25;;;;;;;4.76;100.00;99923.59;5048014;28;20550;-66
2022/09/29 03:15:18;;;;;;;18.55;14.35;;;;;;;4.78;100.00;99929.69;5049337;28;20055;-66
2022/09/29 03:17:44;;;;;;;19.27;14.60;;;;;;;4.77;100.00;99933.44;5048760;28;20475;-65
2022/09/29 03:20:10;;;;;;;19.08;15.43;;;;;;;4.74;100.00;99931.97;5049367;28;20036;-65
2022/09/29 03:22:37;;;;;;;17.40;14.00;;;;;;;4.71;100.00;99932.41;5049099;28;20037;-65
2022/09/29 03:25:05;;;;;;;22.42;15.23;;;;;;;4.66;100.00;99930.34;5048735;28;20128;-65
2022/09/29 03:27:30;;;;;;;18.90;15.20;;;;;;;4.67;100.00;99923.03;5047848;28;20032;-65
2022/09/29 03:29:56;;;;;;;18.65;15.00;;;;;;;4.66;100.00;99921.34;5045414;28;20120;-65
2022/09/29 03:32:21;;;;;;;18.42;15.00;;;;;;;4.63;100.00;99928.06;5035512;28;20033;-66
2022/09/29 03:34:46;;;;;;;17.65;14.70;;;;;;;4.62;100.00;99920.13;5049908;28;20032;-65
2022/09/29 03:37:12;;;;;;;19.20;15.18;;;;;;;4.63;100.00;99922.59;5048787;28;20055;-65
2022/09/29 03:39:37;;;;;;;20.48;16.10;;;;;;;4.61;100.00;99924.72;5043798;28;20357;-65
2022/09/29 03:42:02;;;;;;;22.98;16.02;;;;;;;4.62;100.00;99922.84;5047003;28;20049;-66
2022/09/29 03:44:28;;;;;;;19.60;15.45;;;;;;;4.60;100.00;99922.19;5046771;28;20033;-65
2022/09/29 03:46:53;;;;;;;18.77;14.52;;;;;;;4.56;100.00;99923.66;5043982;28;20029;-66
2022/09/29 03:49:18;;;;;;;16.88;14.32;;;;;;;4.51;100.00;99918.91;5040759;28;20037;-66
2022/09/29 03:51:44;;;;;;;18.42;13.73;;;;;;;4.51;100.00;99927.06;5039191;28;20025;-65
2022/09/29 03:54:10;;;;;;;19.45;14.48;;;;;;;4.50;100.00;99922.63;5036684;28;20092;-65
2022/09/29 03:56:36;;;;;;;19.80;14.38;;;;;;;4.52;100.00;99927.88;5031950;28;20061;-66
2022/09/29 03:59:04;;;;;;;19.35;16.23;;;;;;;4.53;100.00;99924.94;5045755;28;20127;-65
2022/09/29 04:01:29;;;;;;;18.58;15.60;;;;;;;4.58;100.00;99930.56;5047325;28;20025;-65
2022/09/29 04:03:54;;;;;;;22.13;16.60;;;;;;;4.58;100.00;99924.31;5046414;28;20028;-66
2022/09/29 04:06:19;;;;;;;19.85;16.65;;;;;;;4.58;100.00;99935.19;5047890;28;20102;-66
2022/09/29 04:08:45;;;;;;;19.67;15.75;;;;;;;4.56;100.00;99929.97;5046997;28;20044;-65
2022/09/29 04:11:10;;;;;;;19.50;15.52;;;;;;;4.54;100.00;99932.03;5047578;28;20465;-65
2022/09/29 04:13:35;;;;;;;19.90;16.48;;;;;;;4.48;100.00;99935.63;5043087;28;20086;-65
2022/09/29 04:16:03;;;;;;;18.48;14.77;;;;;;;4.46;100.00;99942.31;5034573;28;20043;-66
2022/09/29 04:18:29;;;;;;;18.38;15.73;;;;;;;4.43;100.00;99944.41;5034249;28;20048;-66
2022/09/29 04:20:59;;;;;;;20.75;15.32;;;;;;;4.41;100.00;99951.13;5035704;28;20411;-65
2022/09/29 04:23:24;;;;;;;20.92;15.02;;;;;;;4.41;100.00;99945.69;5040907;28;20116;-65
2022/09/29 04:25:50;;;;;;;19.92;14.90;;;;;;;4.38;100.00;99943.38;5028266;28;20415;-66
2022/09/29 04:28:15;;;;;;;18.65;15.63;;;;;;;4.37;100.00;99952.59;5033712;28;20056;-66
2022/09/29 04:30:40;;;;;;;18.58;15.27;;;;;;;4.32;100.00;99957.84;5044699;28;20038;-65
2022/09/29 04:33:05;;;;;;;19.30;14.73;;;;;;;4.27;100.00;99957.63;5045884;28;20021;-66
2022/09/29 04:35:31;;;;;;;17.80;15.27;;;;;;;4.26;100.00;99950.50;5046346;28;20029;-66
2022/09/29 04:37:56;;;;;;;17.45;15.05;;;;;;;4.25;100.00;99957.00;5032493;28;20033;-66
2022/09/29 04:40:23;;;;;;;20.30;15.48;;;;;;;4.26;100.00;99961.38;5027858;28;20033;-66
2022/09/29 04:42:48;;;;;;;18.92;15.32;;;;;;;4.22;100.00;99958.28;5031245;28;20021;-67
2022/09/29 04:45:14;;;;;;;19.35;14.90;;;;;;;4.19;100.00;99953.25;5047213;28;20078;-66
2022/09/29 04:47:39;;;;;;;15.32;13.10;;;;;;;4.16;100.00;99959.13;5047147;28;20717;-66
2022/09/29 04:50:05;;;;;;;16.88;14.63;;;;;;;4.12;100.00;99957.88;5041137;28;20124;-66
2022/09/29 04:52:30;;;;;;;17.77;14.55;;;;;;;4.08;100.00;99962.03;5035876;28;20040;-66
2022/09/29 04:54:56;;;;;;;16.90;13.70;;;;;;;4.04;100.00;99964.34;5035732;28;20026;-66
2022/09/29 04:57:21;;;;;;;19.75;14.68;;;;;;;4.04;100.00;99967.06;5026878;28;20059;-66
2022/09/29 04:59:46;;;;;;;18.52;14.52;;;;;;;4.05;100.00;99965.16;5027151;28;20553;-66
2022/09/29 05:02:11;;;;;;;18.10;14.88;;;;;;;4.06;100.00;99969.56;5033310;28;20037;-66
2022/09/29 05:04:37;;;;;;;18.27;14.82;;;;;;;4.03;100.00;99965.38;5040035;28;20033;-66
2022/09/29 05:07:02;;;;;;;17.77;15.30;;;;;;;4.03;100.00;99969.97;5031837;28;20100;-66
2022/09/29 05:09:27;;;;;;;17.63;14.65;;;;;;;4.00;100.00;99976.66;5042791;28;20040;-66
2022/09/29 05:11:53;;;;;;;18.77;15.32;;;;;;;3.99;100.00;99966.00;5024228;28;20041;-66
2022/09/29 05:14:18;;;;;;;17.48;13.93;;;;;;;3.98;100.00;99975.22;5026100;28;20442;-67
2022/09/29 05:16:43;;;;;;;17.30;14.43;;;;;;;3.95;100.00;99973.72;5034772;28;20017;-65
2022/09/29 05:19:09;;;;;;;21.25;14.77;;;;;;;3.93;100.00;99975.00;5044796;28;20025;-66
2022/09/29 05:21:35;;;;;;;16.80;13.30;;;;;;;3.91;100.00;99977.94;5032413;28;20506;-66
2022/09/29 05:24:00;;;;;;;19.35;14.80;;;;;;;3.90;100.00;99984.38;5040226;28;20021;-65
2022/09/29 05:26:26;;;;;;;17.25;14.75;;;;;;;3.88;100.00;99991.94;5038658;28;20031;-66
2022/09/29 05:28:51;;;;;;;20.35;15.95;;;;;;;3.87;100.00;99993.81;5027023;28;20039;-66
2022/09/29 05:31:17;;;;;;;20.20;15.40;;;;;;;3.87;100.00;99996.53;5046453;28;20111;-65
2022/09/29 05:33:42;;;;;;;17.67;14.70;;;;;;;3.86;100.00;99999.47;5045087;28;20029;-66
2022/09/29 05:36:10;;;;;;;19.13;14.80;;;;;;;3.87;100.00;100009.28;5043508;28;20021;-66
2022/09/29 05:38:36;;;;;;;19.17;14.57;;;;;;;3.87;100.00;99998.41;5026722;28;20333;-66
2022/09/29 05:41:07;;;;;;;19.70;15.93;;;;;;;3.85;100.00;100006.78;5025940;28;20056;-66
2022/09/29 05:43:32;;;;;;;17.60;15.02;;;;;;;3.85;100.00;100006.78;5042748;28;20033;-66
2022/09/29 05:46:05;;;;;;;17.98;15.05;;;;;;;3.85;100.00;100016.78;5034587;28;20079;-66
2022/09/29 05:48:30;;;;;;;18.08;14.80;;;;;;;3.83;100.00;100006.13;5024638;28;20056;-65
2022/09/29 05:50:57;;;;;;;20.05;15.88;;;;;;;3.83;100.00;100002.56;5040639;28;20483;-66
2022/09/29 05:53:23;;;;;;;20.10;15.30;;;;;;;3.84;100.00;100009.69;5036003;28;20053;-66
2022/09/29 05:55:49;;;;;;;21.27;16.25;;;;;;;3.86;100.00;100007.59;5031475;28;20056;-67
2022/09/29 05:58:14;;;;;;;20.90;16.63;;;;;;;3.88;100.00;100011.78;5027317;28;20749;-66
2022/09/29 06:00:39;;;;;;;19.90;17.00;;;;;;;3.92;100.00;100014.09;5041811;28;20028;-66
2022/09/29 06:03:05;;;;;;;21.10;16.85;;;;;;;3.97;100.00;100017.84;5025659;28;20288;-65
2022/09/29 06:05:30;;;;;;;19.90;16.65;;;;;;;4.00;100.00;100005.72;5025538;28;20503;-66
2022/09/29 06:07:55;;;;;;;18.90;15.60;;;;;;;4.01;100.00;100018.28;5036401;28;20132;-66
2022/09/29 06:10:21;;;;;;;19.30;16.08;;;;;;;4.02;100.00;100012.63;5036114;28;20038;-66
2022/09/29 06:12:47;;;;;;;20.88;16.42;;;;;;;4.03;100.00;100017.00;5038934;28;20021;-66
2022/09/29 06:15:12;;;;;;;21.73;17.05;;;;;;;4.07;100.00;100017.44;5044162;28;20028;-66
2022/09/29 06:17:38;;;;;;;21.83;16.80;;;;;;;4.10;100.00;100022.44;5044801;28;20025;-66
2022/09/29 06:20:05;;;;;;;23.02;17.20;;;;;;;4.13;100.00;100031.00;5043049;28;20058;-66
2022/09/29 06:22:31;;;;;;;22.55;17.23;;;;;;;4.14;100.00;100020.97;5041181;28;20064;-66
2022/09/29 06:24:56;;;;;;;21.40;17.67;;;;;;;4.20;100.00;100028.28;5029259;28;20358;-66
2022/09/29 06:27:21;;;;;;;21.65;17.45;;;;;;;4.25;100.00;100033.09;5025968;28;20041;-66
2022/09/29 06:29:47;;;;;;;22.48;17.92;;;;;;;4.27;100.00;100033.75;5044070;28;20037;-66
2022/09/29 06:32:12;;;;;;;25.58;19.15;;;;;;;4.32;100.00;100033.94;5039662;28;20041;-66
2022/09/29 06:37:33;;;;;;;23.48;18.85;;;;;;;4.40;100.00;100039.16;5029200;28;20033;-66
2022/09/29 06:37:36;;;;;;;26.17;19.30;;;;;;;4.46;100.00;100042.91;5032524;28;20033;-66
2022/09/29 06:40:05;;;;;;;;;;;;;;;4.58;100.00;100041.25;5028654;28;20472;-66
2022/09/29 06:42:30;;;;;;;23.20;19.17;;;;;;;4.57;100.00;100047.72;5039065;28;19917;-66
2022/09/29 06:44:55;;;;;;;28.88;20.02;;;;;;;4.62;100.00;100054.22;5047201;28;20070;-66
2022/09/29 06:47:21;;;;;;;25.20;19.95;;;;;;;4.67;100.00;100054.41;5037576;28;20607;-66
2022/09/29 06:49:47;;;;;;;26.40;21.63;;;;;;;4.77;100.00;100053.97;5041942;28;20491;-66
2022/09/29 06:52:13;;;;;;;25.15;20.42;;;;;;;4.82;100.00;100051.44;5046415;28;20107;-66
2022/09/29 06:54:38;;;;;;;28.67;22.48;;;;;;;4.87;100.00;100059.81;5035265;28;20026;-66
2022/09/29 06:57:03;;;;;;;29.00;22.95;;;;;;;4.92;100.00;100048.28;5030149;28;20083;-66
2022/09/29 06:59:28;;;;;;;28.95;22.30;;;;;;;5.01;100.00;100066.03;5042350;28;20475;-66
2022/09/29 07:01:54;;;;;;;29.73;22.92;;;;;;;5.08;100.00;100066.03;5030936;28;20398;-66
2022/09/29 07:04:20;;;;;;;29.42;23.38;;;;;;;5.13;100.00;100074.41;5030944;28;20032;-66
2022/09/29 07:06:45;;;;;;;29.85;23.40;;;;;;;5.19;100.00;100066.19;5048081;28;20087;-66
2022/09/29 07:09:14;;;;;;;34.40;23.88;;;;;;;5.26;100.00;100068.06;5048008;28;20479;-66
2022/09/29 07:11:41;;;;;;;32.05;24.73;;;;;;;5.33;100.00;100067.00;5047606;28;20029;-66
2022/09/29 07:14:06;;;;;;;34.50;25.17;;;;;;;5.40;100.00;100069.69;5045390;28;20119;-66
2022/09/29 07:16:31;;;;;;;31.85;25.15;;;;;;;5.48;100.00;100072.16;5048015;28;20151;-66
2022/09/29 07:18:56;;;;;;;33.58;25.15;;;;;;;5.55;100.00;100078.41;5045735;28;20037;-66
2022/09/29 07:21:22;;;;;;;33.20;25.30;;;;;;;5.61;100.00;100077.53;5032843;28;20033;-66
2022/09/29 07:23:47;;;;;;;36.47;27.65;;;;;;;5.70;100.00;100078.97;5031268;28;20561;-66
2022/09/29 07:26:15;;;;;;;38.72;27.02;;;;;;;5.77;100.00;100083.53;5026841;28;20033;-66
2022/09/29 07:28:40;;;;;;;36.50;27.58;;;;;;;5.85;100.00;100084.13;5027836;28;20118;-66
2022/09/29 07:31:09;;;;;;;38.22;28.38;;;;;;;5.94;100.00;100087.47;5027091;28;20072;-66
2022/09/29 07:33:34;;;;;;;39.60;28.98;;;;;;;6.02;100.00;100083.63;5041408;28;20387;-66
2022/09/29 07:36:00;;;;;;;39.28;28.58;;;;;;;6.11;100.00;100077.69;5046125;28;20033;-66
2022/09/29 07:38:27;;;;;;;37.42;28.30;;;;;;;6.19;100.00;100087.50;5047747;28;20505;-66
2022/09/29 07:40:52;;;;;;;38.22;29.75;;;;;;;6.27;100.00;100075.47;5047374;28;20100;-66
2022/09/29 07:43:17;;;;;;;42.53;29.25;;;;;;;6.35;100.00;100083.41;5047233;28;20105;-66
2022/09/29 07:45:48;;;;;;;40.65;29.20;;;;;;;6.43;100.00;100091.28;5047596;28;20397;-66
2022/09/29 07:48:14;;;;;;;41.00;29.58;;;;;;;6.51;100.00;100088.28;5046672;28;20433;-66
2022/09/29 07:50:39;;;;;;;40.55;30.35;;;;;;;6.58;100.00;100089.06;5046070;28;20037;-66
2022/09/29 07:53:04;;;;;;;42.20;30.27;;;;;;;6.68;100.00;100094.03;5044929;28;20079;-66
2022/09/29 07:55:29;;;;;;;40.92;30.27;;;;;;;6.76;100.00;100097.31;5047632;28;20101;-66
2022/09/29 07:57:55;;;;;;;41.45;31.27;;;;;;;6.86;100.00;100093.25;5046899;28;20021;-65
2022/09/29 08:00:21;;;;;;;41.80;30.52;;;;;;;6.97;100.00;100097.94;5047604;28;20028;-65
2022/09/29 08:02:46;;;;;;;40.53;30.65;;;;;;;7.08;100.00;100099.94;5047864;28;20036;-65
2022/09/29 08:05:12;;;;;;;45.67;31.10;;;;;;;7.17;100.00;100101.31;5041813;28;20028;-65
2022/09/29 08:07:37;;;;;;;44.90;31.90;;;;;;;7.32;100.00;100111.03;5043590;28;20041;-65
2022/09/29 08:10:03;;;;;;;41.25;31.25;;;;;;;7.45;100.00;100121.78;5046925;28;20045;-65
2022/09/29 08:12:28;;;;;;;40.05;29.52;;;;;;;7.58;100.00;100118.06;5046821;28;20388;-66
2022/09/29 08:14:54;;;;;;;39.92;31.00;;;;;;;7.72;100.00;100117.69;5044859;28;20108;-65
2022/09/29 08:17:19;;;;;;;47.15;30.55;;;;;;;7.87;100.00;100125.47;5030302;28;20570;-65
2022/09/29 08:19:44;;;;;;;42.55;30.52;;;;;;;8.17;100.00;100119.19;5031346;28;20036;-66
2022/09/29 08:22:10;;;;;;;40.30;29.92;;;;;;;8.44;100.00;100115.00;5027504;28;20460;-66
2022/09/29 08:24:35;;;;;;;38.92;28.95;;;;;;;8.64;100.00;100124.78;5028735;28;20021;-65
2022/09/29 08:27:04;;;;;;;36.90;27.15;;;;;;;8.78;100.00;100120.78;5045626;28;20031;-65
2022/09/29 08:29:29;;;;;;;;;;;;;;;9.09;100.00;100127.81;5029930;28;20052;-66
2022/09/29 08:31:55;;;;;;;37.83;25.97;;;;;;;9.65;97.38;100130.94;5042856;28;19917;-65
2022/09/29 08:34:21;;;;;;;37.40;26.80;;;;;;;9.77;95.66;100129.00;5025819;28;20292;-65
2022/09/29 08:36:46;;;;;;;39.28;27.75;;;;;;;9.69;95.53;100135.69;5043341;28;20032;-65
2022/09/29 08:39:12;;;;;;;40.60;26.55;;;;;;;9.57;95.06;100132.97;5036534;28;20036;-65
2022/09/29 08:41:53;;;;;;;35.88;26.02;;;;;;;9.62;94.87;100148.69;5025617;28;20471;-65
2022/09/29 08:44:26;;;;;;;40.40;26.63;;;;;;;9.87;93.60;100151.97;5032662;28;20048;-66
2022/09/29 08:47:00;;;;;;;35.83;24.30;;;;;;;10.18;91.85;100149.00;5031592;28;20387;-65
2022/09/29 08:49:38;;;;;;;35.83;26.20;;;;;;;10.34;90.84;100140.00;5029762;28;20072;-65
2022/09/29 08:52:21;;;;;;;32.30;23.60;;;;;;;10.55;90.85;100153.03;5031120;28;20029;-66
2022/09/29 08:54:51;;;;;;;37.50;24.73;;;;;;;10.83;90.00;100143.88;5041085;28;20013;-66
2022/09/29 08:57:19;;;;;;;33.97;24.42;;;;;;;11.27;88.85;100148.69;5040648;28;20121;-66
2022/09/29 08:59:52;;;;;;;29.75;22.90;;;;;;;12.14;83.74;100142.41;5032084;28;20028;-66
2022/09/29 09:02:45;;;;;;;32.95;22.77;;;;;;;12.98;81.06;100148.19;5032246;28;20050;-66
2022/09/29 09:05:29;;;;;;;29.05;21.58;;;;;;;14.26;78.61;100146.13;5031777;28;20037;-65
2022/09/29 09:08:21;;;;;;;26.95;20.33;;;;;;;16.14;75.28;100141.53;5040152;28;20407;-65
2022/09/29 09:10:49;;;;;;;27.30;18.55;;;;;;;18.24;61.65;100149.59;5039033;28;20493;-66
2022/09/29 09:13:38;;;;;;;24.77;17.33;;;;;;;19.79;60.16;100151.22;5036784;28;20480;-67
2022/09/29 09:16:28;;;;;;;22.92;16.08;;;;;;;20.88;51.12;100152.19;5033881;28;20474;-66
2022/09/29 09:19:43;;;;;;;18.67;13.52;;;;;;;21.68;54.96;100160.75;5037544;28;20094;-66
2022/09/29 09:22:23;;;;;;;24.45;15.07;;;;;;;22.38;49.36;100161.84;5035736;28;20440;-67
2022/09/29 09:25:00;;;;;;;19.65;13.02;;;;;;;22.83;45.89;100159.56;5029870;28;20076;-68
2022/09/29 09:27:32;;;;;;;19.75;13.98;;;;;;;23.59;42.57;100164.56;5032737;28;20068;-67
2022/09/29 09:30:14;;;;;;;17.17;13.07;;;;;;;24.28;44.75;100164.28;5035379;28;20118;-67
2022/09/29 09:33:03;;;;;;;18.15;13.73;;;;;;;25.34;43.97;100152.72;5040029;28;20036;-66
2022/09/29 09:35:44;;;;;;;20.98;13.95;;;;;;;25.62;40.93;100157.72;5038510;28;20395;-66
2022/09/29 09:38:17;;;;;;;16.88;12.13;;;;;;;25.78;37.75;100161.50;5036821;28;20091;-66
2022/09/29 09:40:49;;;;;;;15.40;11.25;;;;;;;25.39;38.47;100162.09;5035018;28;20025;-66
2022/09/29 09:43:25;;;;;;;16.85;10.43;;;;;;;25.71;38.12;100157.63;5034952;28;20159;-67
2022/09/29 09:45:59;;;;;;;14.15;10.05;;;;;;;25.88;35.79;100158.22;5030812;28;20713;-65
2022/09/29 09:49:00;;;;;;;13.82;9.30;;;;;;;25.86;40.04;100160.59;5038583;28;20096;-66
2022/09/29 09:51:36;;;;;;;16.60;8.82;;;;;;;25.36;36.42;100167.25;4990036;28;20045;-66
2022/09/29 09:54:10;;;;;;;12.05;7.13;;;;;;;24.64;35.47;100167.72;5036635;28;20033;-66
2022/09/29 09:57:02;;;;;;;10.10;7.18;;;;;;;24.73;35.24;100166.47;5035678;28;20538;-66
2022/09/29 09:59:40;;;;;;;7.93;5.25;;;;;;;25.05;34.63;100172.50;5030757;28;20400;-67
2022/09/29 10:02:18;;;;;;;8.60;5.45;;;;;;;25.65;36.16;100170.22;5030785;28;20076;-66
2022/09/29 10:04:43;;;;;;;9.82;5.97;;;;;;;25.91;34.83;100169.97;5036038;28;20025;-66
2022/09/29 10:07:09;;;;;;;7.32;5.10;;;;;;;25.62;32.57;100164.16;5036103;28;20041;-64
2022/09/29 10:09:34;;;;;;;6.30;3.05;;;;;;;25.35;32.49;100165.63;5035734;28;20040;-65
2022/09/29 10:12:00;;;;;;;7.97;4.60;;;;;;;24.85;33.33;100180.59;5035225;28;20100;-66
2022/09/29 10:14:27;;;;;;;8.20;5.40;;;;;;;24.57;34.14;100177.50;5041792;28;20128;-64
2022/09/29 10:16:58;;;;;;;8.68;5.50;;;;;;;25.35;33.17;100181.66;5041394;28;20464;-64
2022/09/29 10:19:55;;;;;;;8.27;5.03;;;;;;;25.60;36.55;100174.13;5037328;28;20033;-64
2022/09/29 10:22:21;;;;;;;7.45;5.03;;;;;;;25.89;31.45;100175.94;5040705;28;20033;-65
2022/09/29 10:24:46;;;;;;;6.45;4.18;;;;;;;26.55;31.99;100178.50;5035329;28;20028;-64
2022/09/29 10:27:19;;;;;;;7.07;4.05;;;;;;;27.17;32.57;100184.84;5033936;28;20032;-65
2022/09/29 10:29:51;;;;;;;6.53;4.30;;;;;;;27.32;29.69;100184.06;5037505;28;20055;-66
2022/09/29 10:32:36;;;;;;;7.28;4.13;;;;;;;27.57;32.67;100183.91;5027586;28;20033;-66
2022/09/29 10:35:26;;;;;;;7.55;4.60;;;;;;;27.89;33.25;100184.81;5029496;28;20569;-65
2022/09/29 10:38:01;;;;;;;6.65;4.00;;;;;;;28.31;30.68;100187.06;5026648;28;20055;-64
2022/09/29 10:40:26;;;;;;;6.03;3.55;;;;;;;28.56;27.98;100185.66;5038634;28;20352;-66
2022/09/29 10:42:52;;;;;;;6.80;4.10;;;;;;;28.76;28.84;100192.19;5034715;28;20045;-66
2022/09/29 10:45:25;;;;;;;7.13;3.92;;;;;;;29.01;29.14;100187.09;5031694;28;20827;-65
2022/09/29 10:47:56;;;;;;;7.05;3.75;;;;;;;28.72;29.37;100191.28;5041337;28;20037;-65
2022/09/29 10:50:29;;;;;;;4.53;2.80;;;;;;;28.42;26.82;100200.28;5032882;28;20046;-64
2022/09/29 10:53:00;;;;;;;5.40;2.60;;;;;;;27.70;27.88;100193.94;5043408;28;20115;-65
2022/09/29 10:55:32;;;;;;;4.25;2.70;;;;;;;28.11;29.04;100191.81;5028551;28;20068;-64
2022/09/29 10:58:00;;;;;;;4.78;2.90;;;;;;;28.36;30.16;100190.44;5045413;28;20032;-66
2022/09/29 11:00:37;;;;;;;4.68;2.88;;;;;;;28.39;27.58;100192.56;5049158;28;20028;-65
2022/09/29 11:03:16;;;;;;;5.70;2.85;;;;;;;28.67;28.38;100191.56;5046181;28;20132;-65
2022/09/29 11:06:12;;;;;;;4.28;2.55;;;;;;;29.07;30.29;100185.59;5031908;28;20079;-66
2022/09/29 11:08:57;;;;;;;3.75;2.20;;;;;;;28.70;30.64;100185.19;5036927;28;20053;-65
2022/09/29 11:11:45;;;;;;;4.53;2.35;;;;;;;29.45;29.72;100190.44;5042390;28;20072;-65
2022/09/29 11:14:28;;;;;;;3.53;1.80;;;;;;;29.51;28.38;100184.47;5024426;28;20427;-65
2022/09/29 11:17:00;;;;;;;4.35;2.08;;;;;;;29.45;26.43;100193.25;5029599;28;20060;-64
2022/09/29 11:19:28;;;;;;;2.25;0.98;;;;;;;28.65;25.34;100194.75;5031307;28;20356;-65
2022/09/29 11:22:11;;;;;;;2.22;1.33;;;;;;;28.91;28.33;100188.47;5041407;28;20120;-64
2022/09/29 11:24:50;;;;;;;2.88;1.77;;;;;;;28.62;26.13;100194.69;5043929;28;20075;-64
2022/09/29 11:27:44;;;;;;;4.18;2.38;;;;;;;28.60;27.45;100192.22;5029565;28;20033;-65
2022/09/29 11:30:19;;;;;;;3.75;2.50;;;;;;;28.20;27.52;100200.91;5029430;28;20112;-65
2022/09/29 11:33:04;;;;;;;3.40;2.20;;;;;;;28.05;28.76;100196.09;5030715;28;20051;-64